x

8570283 - Ocean City Inlet, Md (ocim2) Weather Station

11:12 - Sat 23rd Feb 2019 All times are EST. -5 hours from GMT.

  • Wind
    5mph, 7mph gusts
  • Sea Temp 41°f
  • Luft Temp 42°f
  • Sea Pressure 1031.1mb
  • 8570283 - Ocean City Inlet, Md
  • 8570283 - Ocean City Inlet, Md

More Historic Weather Station data

Upgrade to MSW Pro to gain access to the past 30 days of data for over 8000 Wavebouys and Weather Stations around the globe.

Join

Comparision Forecast

View Surf forecast
   
Sa 02/23 11:12 5 7 mph 1031.1mb 41f 42f
11:06 5 8 mph 1031.2mb 41f 43f
11:00 5 8 mph 1031.4mb 41f 43f
10:54 6 7 mph 1031.3mb 41f 42f
10:48 6 8 mph 1031.2mb 41f 42f
10:42 6 8 mph 1031.2mb 41f 42f
10:36 5 7 mph 1031.2mb 41f 42f
10:30 6 8 mph 1031.3mb 41f 42f
10:24 6 7 mph 1031.4mb 41f 42f
10:18 6 8 mph - - -
10:12 5 7 mph 1031.7mb 41f 42f
10:06 6 9 mph 1031.6mb 41f 42f
10:00 6 7 mph 1031.7mb 41f 42f
9:54 5 7 mph 1031.9mb 41f 42f
9:48 5 8 mph 1031.9mb 41f 42f
9:42 5 8 mph 1031.9mb 41f 42f
9:36 3 6 mph 1032.1mb 41f 42f
9:30 5 7 mph 1032.2mb 41f 42f
9:24 5 8 mph 1032.3mb 41f 42f
9:18 6 8 mph 1032.1mb 41f 42f
9:12 6 8 mph 1032mb 41f 42f
9:06 5 8 mph 1032mb 41f 42f
9:00 6 8 mph 1032mb 41f 42f
8:54 7 9 mph 1031.8mb 41f 42f
8:48 8 10 mph - - -
8:42 6 9 mph 1031.7mb 41f 42f
8:36 7 10 mph 1031.7mb 41f 42f
8:30 6 8 mph 1031.7mb 41f 41f
8:24 7 11 mph 1031.8mb 41f 41f
8:18 6 9 mph 1031.9mb - -
8:12 7 10 mph 1032mb 42f 41f
8:06 8 13 mph 1031.7mb 42f 41f
8:00 6 11 mph 1031.6mb 42f 41f
7:54 7 10 mph 1031.7mb 42f 41f
7:48 7 9 mph 1031.6mb 42f 41f
7:42 8 11 mph 1031.5mb 42f 41f
7:36 8 13 mph 1031.5mb 42f 41f
7:30 7 10 mph 1031.6mb 42f 41f
7:24 7 9 mph 1031.4mb 42f 41f
7:18 6 8 mph 1031.1mb 42f 41f
7:12 7 10 mph 1030.9mb 42f 41f
7:06 8 11 mph 1031.3mb 42f 41f
7:00 6 8 mph 1031.4mb 42f 41f
6:54 6 10 mph 1031.4mb 42f 40f
6:48 8 13 mph 1031.2mb 42f 40f
6:42 8 14 mph 1030.8mb 42f 40f
6:36 7 10 mph 1030.8mb 42f 40f
6:30 8 14 mph 1030.9mb 42f 41f
6:24 8 14 mph 1030.9mb 42f 41f
6:18 9 15 mph 1030.8mb - -
6:12 9 14 mph 1030.8mb 42f 41f
6:06 10 17 mph 1030.9mb 42f 41f
6:00 8 15 mph 1031mb 42f 41f
5:54 9 13 mph 1030.8mb 42f 41f
5:48 10 15 mph 1030.7mb 42f 41f
5:42 8 13 mph 1030.7mb 42f 41f
5:36 9 14 mph 1030.8mb 42f 41f
5:30 8 13 mph 1030.7mb 42f 41f
5:24 9 14 mph 1030.7mb 42f 41f
5:18 8 13 mph 1030.9mb 42f 41f
5:12 7 9 mph 1030.8mb 42f 41f
5:06 6 11 mph 1030.7mb 42f 41f
5:00 7 10 mph 1030.7mb 42f 41f
4:54 7 11 mph 1030.6mb 42f 41f
4:48 7 10 mph 1030.7mb 42f 41f
4:42 7 11 mph 1030.7mb 42f 41f
4:36 6 7 mph 1030.8mb 42f 41f
4:30 6 8 mph 1030.9mb 41f 41f
4:24 6 8 mph 1030.9mb 41f 41f
4:18 6 7 mph 1030.9mb 41f 41f
4:12 6 8 mph 1030.8mb 41f 41f
4:06 6 7 mph 1031.1mb 41f 41f
4:00 3 6 mph 1031mb 41f 41f
3:54 5 7 mph 1031mb 41f 41f
3:48 2 6 mph 1030.9mb 41f 41f
3:42 3 6 mph 1030.8mb 41f 41f
3:36 2 5 mph 1031.1mb 41f 41f
3:30 3 6 mph 1031mb 41f 41f
3:24 2 5 mph 1030.9mb 41f 41f
3:18 3 6 mph - - -
3:12 1 2 mph 1031.1mb 41f 41f
3:06 1 3 mph 1031.3mb 41f 41f
3:00 3 5 mph 1031.6mb 41f 41f
2:30 1 3 mph 1031.7mb 41f 41f
2:24 2 3 mph 1031.8mb 41f 41f
2:18 2 3 mph 1032.2mb 41f 41f
2:12 3 5 mph 1032.3mb 41f 41f
2:06 3 3 mph 1032.1mb 41f 41f
2:00 2 3 mph 1031.9mb 41f 41f
1:54 2 5 mph 1031.8mb 41f 41f
1:48 2 6 mph 1031.4mb 41f 42f
1:42 2 3 mph 1031.4mb 41f 42f
1:36 3 6 mph 1031.3mb 41f 42f
1:30 2 3 mph 1031.3mb 41f 41f
1:24 1 2 mph 1031.2mb 41f 41f
1:18 2 3 mph 1031.4mb 41f 41f
1:12 3 3 mph 1031.4mb 41f 41f
1:06 5 7 mph 1031.4mb 41f 41f
1:00 3 5 mph 1031.4mb 41f 41f
12:30 3 3 mph 1031.7mb 41f 41f
12:24 3 5 mph 1031.7mb 41f 41f
12:18 5 6 mph 1031.6mb 41f 41f
12:12 3 3 mph - - -
12:06 3 5 mph 1031.2mb 41f 41f
12:00 2 5 mph - - -
Fr 02/22 11:30 1 2 mph 1031.5mb 41f 41f
11:24 2 3 mph 1031.5mb 41f 41f
11:18 3 3 mph 1031.4mb 41f 41f
11:12 2 2 mph 1031.1mb 41f 41f
11:06 1 2 mph 1031.1mb 41f 41f
11:00 1 2 mph 1031.2mb 41f 41f
10:54  -  1 mph 1031.5mb 41f 40f
10:48 1 1 mph 1031.4mb 41f 40f
10:42  -  1 mph 1031.6mb 41f 40f
10:36 1 2 mph 1031.4mb 41f 41f
10:30  -  1 mph 1031.6mb 41f 41f
10:24 1 1 mph 1031.4mb 41f 41f
10:18  -  0 mph 1031.5mb 41f 40f
10:12  -  2 mph 1031.4mb 41f 41f
10:06 2 2 mph 1031.7mb 41f 41f
10:00 2 3 mph 1031.6mb 41f -
9:54  -  1 mph 1031.6mb 41f 41f
9:48  -  0 mph 1031.5mb 41f 41f
9:42  -  0 mph 1031.6mb 41f 41f
9:36  -  0 mph 1031.6mb 41f 41f
9:30  -  1 mph 1031.5mb 41f 41f
9:24  -  1 mph 1031.5mb 41f 41f
9:18 1 1 mph 1031.5mb 41f 41f
9:12 1 1 mph 1031.5mb 41f 42f
9:06  -  1 mph 1031.2mb 41f 42f
9:00  -  0 mph 1031.2mb 41f 42f
8:30 2 3 mph 1031.6mb 41f 42f
8:24 2 3 mph 1031.6mb 42f 42f
8:18 1 2 mph 1031.6mb 42f 42f
8:12 2 2 mph 1031.5mb 42f 42f
8:06 2 2 mph 1031.4mb 42f 42f
8:00 2 2 mph 1031.3mb 42f 42f
7:30 5 5 mph 1031.5mb 43f 42f
7:24 2 5 mph 1031.8mb 43f 42f
7:18 6 7 mph 1031.8mb 43f 42f
7:12 2 3 mph 1031.7mb 43f 42f
7:06 5 5 mph 1031.6mb 43f 42f
7:00 3 6 mph 1031.4mb 43f 42f
6:54 3 6 mph 1031.3mb 43f 42f
6:48 5 6 mph 1031.3mb 43f 42f
6:42 3 5 mph 1030.9mb 43f 42f
6:36  -  1 mph 1030.8mb 43f 42f
6:30 1 2 mph 1030.6mb 43f 42f
6:24 2 5 mph 1030.3mb 43f 42f
6:18 2 3 mph 1030.1mb 43f 42f
6:12 1 3 mph 1029.9mb 43f 41f
6:06 3 5 mph 1029.8mb 43f 41f
6:00 2 5 mph 1029.6mb 43f 41f
5:54 3 5 mph 1029.6mb 43f 41f
5:48 3 5 mph 1029.4mb 43f 41f
5:42 3 7 mph 1029.5mb 43f 41f
5:36 3 6 mph 1029.4mb 43f 42f
5:30 3 6 mph 1029.5mb 43f 42f
5:24 3 6 mph 1029.4mb 43f 42f
5:18 2 3 mph 1029.5mb 43f 42f
5:12 5 6 mph 1029.5mb 43f 42f
5:06 3 5 mph 1029.5mb 43f 42f
5:00 5 7 mph 1029.5mb 43f 42f
4:30 5 7 mph 1029.5mb 42f 42f
4:24 2 5 mph 1029.6mb 42f 42f
4:18 5 6 mph 1029.5mb 42f 42f
4:12 3 6 mph 1029.4mb 42f 42f
4:06 3 5 mph 1029.6mb 42f 42f
4:00 3 6 mph 1029.5mb 42f 42f
3:54 5 6 mph 1029.5mb 42f 42f
3:48 3 6 mph 1029.5mb 42f 42f
3:42 5 6 mph 1029.6mb 42f 42f
3:36 5 7 mph 1029.6mb 42f 42f
3:30 3 6 mph 1029.5mb - -
3:24 5 6 mph 1029.4mb 42f 42f
3:18 5 8 mph 1029.4mb 42f 43f
3:12 3 6 mph 1029.4mb 42f 43f
3:06 5 6 mph 1029.3mb 42f 42f
3:00 3 5 mph 1029mb 42f 42f
2:30 5 7 mph 1028.8mb 41f 42f
2:24 5 7 mph 1028.7mb 41f 43f
2:18 3 6 mph 1028.7mb 41f 42f
2:12 3 6 mph 1028.8mb 41f 42f
2:06 3 6 mph 1028.9mb 41f 43f
2:00 3 6 mph 1029.1mb 41f 42f
1:54 6 8 mph 1029.1mb 41f 43f
1:48 5 7 mph 1029mb 41f 43f
1:42 5 7 mph 1028.8mb 41f 43f
1:36 5 8 mph 1028.9mb 41f 42f
1:30 6 8 mph 1028.9mb 41f 42f
1:24 5 6 mph 1028.9mb 41f 43f
1:18 7 9 mph 1028.9mb 41f 43f
1:12 6 8 mph 1028.8mb 41f 43f
1:06 5 8 mph 1029mb 41f 43f
1:00 6 8 mph 1028.8mb 41f 43f
12:54 7 9 mph 1028.9mb 41f 43f
12:48 6 9 mph 1029.2mb 41f 43f
12:42 6 8 mph 1029.5mb 41f 43f
12:36 7 11 mph 1029.2mb 41f 43f
12:30 5 8 mph 1029.8mb 41f 43f
12:24 5 9 mph 1029.8mb 41f 43f
12:18 8 10 mph 1029.6mb 41f 43f
12:12 7 10 mph 1029.7mb 41f 43f
12:06 7 10 mph 1029.5mb 41f 43f
12:00 6 11 mph 1029.9mb 41f 44f
11:54 7 11 mph 1029.8mb 41f 44f
11:48 7 13 mph 1030mb 41f 44f
11:42 7 14 mph 1029.8mb 41f 44f
11:36 10 17 mph 1029.6mb 41f 44f
11:30 7 10 mph 1029.3mb 41f 46f
11:24 3 6 mph 1029.5mb 41f 45f
11:18 6 9 mph 1029.7mb 41f 45f
11:12 5 6 mph 1029.7mb 41f 44f
11:06 6 7 mph 1029.7mb 41f 45f
11:00 6 9 mph 1030mb 41f 44f
10:54 7 10 mph 1030mb 41f 44f
10:48 6 8 mph 1029.7mb 41f 44f
10:42 6 8 mph 1029.5mb 41f 44f
10:36 6 8 mph 1029.6mb 41f 44f
10:30 5 7 mph 1029.5mb 41f 44f
10:24 6 8 mph 1029.5mb 41f 44f
10:18 6 7 mph 1029.3mb 41f 44f
10:12 6 8 mph 1029.1mb 41f 44f
10:06 3 6 mph 1028.8mb 41f 44f
10:00 5 6 mph 1028.8mb 41f 44f
9:54 3 5 mph 1028.7mb 41f 44f
9:48 5 6 mph 1029mb 41f 44f
9:42 5 6 mph 1028.9mb 41f 44f
9:36 5 5 mph 1028.5mb 41f 44f
9:30 3 5 mph 1028.7mb 41f 44f
9:24 3 5 mph 1028.8mb 41f 44f
9:18 3 5 mph 1028.7mb 41f 44f
9:12 5 6 mph 1028.7mb 41f 44f
9:06 2 3 mph 1028.4mb 41f 44f
9:00 5 6 mph 1028.7mb 41f 44f
8:54 3 5 mph 1028.6mb 41f 44f
8:48 1 2 mph 1028.5mb 41f 44f
8:42 2 3 mph 1028.6mb 41f 44f
8:36 3 3 mph 1028.9mb 41f 44f
8:30 2 2 mph 1028.8mb 41f 44f
8:24 2 3 mph 1028.5mb 41f 44f
8:18 3 6 mph 1028.7mb 41f 44f
8:12 3 5 mph 1028.6mb 41f 44f
8:06 5 6 mph 1028.5mb 41f 44f
8:00 5 6 mph 1028.4mb 41f 44f
7:54 6 7 mph 1028.4mb 41f 44f
7:48 5 7 mph 1028.2mb 41f 44f
7:42 5 6 mph 1028mb 41f 44f
7:36 2 3 mph 1027.9mb 42f 44f
7:30 2 3 mph - - -
7:24 3 5 mph 1027.8mb 42f 44f
7:18 3 5 mph 1027.6mb 42f 44f
7:12 3 5 mph 1027.4mb 42f 44f
7:06 3 3 mph 1027.3mb 42f 44f
7:00 3 5 mph - - -
6:54 2 2 mph 1026.8mb 42f 44f
6:48 2 3 mph 1026.9mb 42f 44f
6:42 2 3 mph 1026.7mb 42f 44f
6:36 3 5 mph 1026.7mb 42f 44f
6:30 2 3 mph 1026.8mb 42f 44f
6:24 3 3 mph 1026.8mb 42f 44f
6:18 3 5 mph 1026.6mb 42f 44f
6:12 3 6 mph 1026.4mb 42f 44f
6:06 3 6 mph 1026.4mb 42f 44f
6:00 6 7 mph 1026.1mb - -
5:54 6 7 mph 1025.9mb 42f 44f
5:48 7 8 mph 1025.8mb 42f 45f
5:42 7 9 mph 1025.7mb 42f 45f
5:36 5 6 mph 1025.6mb 42f 44f
5:30 5 6 mph 1025.4mb 42f 44f
5:24 2 3 mph 1025.6mb 42f 44f
5:18 2 3 mph 1025.5mb 42f 45f
5:12 2 3 mph 1025.5mb 42f 45f
5:06 1 2 mph 1025.2mb 42f 45f
5:00 3 5 mph 1025.4mb 42f 45f
4:54 3 5 mph 1025.4mb 42f 45f
4:48 3 5 mph 1025.3mb 42f 45f
4:42 2 3 mph 1025.1mb 42f 45f
4:36 3 5 mph 1025.1mb 42f 46f
4:30 5 6 mph 1025mb 42f 46f
4:24 2 5 mph 1024.9mb 42f 46f
4:18 2 3 mph 1024.8mb 42f 46f
4:12 2 3 mph 1024.7mb 42f 45f
4:06  -  1 mph 1024.8mb 42f 44f
4:00 1 2 mph 1024.8mb 42f 45f
3:54 2 2 mph 1024.8mb 42f 45f
3:48 2 2 mph 1024.9mb 42f 45f
3:42 3 3 mph 1024.8mb 41f 46f
3:36 5 6 mph 1024.8mb 41f 46f
3:30 6 7 mph 1024.8mb 41f 46f
3:24 6 8 mph 1024.6mb 41f 46f
3:18 6 7 mph 1024.5mb 41f 46f
3:12 6 7 mph 1024.5mb 41f 45f
3:06 6 6 mph 1024.3mb 41f 46f
3:00 5 5 mph 1024.1mb 41f 46f
2:54 5 5 mph 1024.2mb 41f 45f
2:48 2 2 mph 1023.9mb 41f 46f
2:42 2 2 mph 1023.9mb 41f 46f
2:36 1 2 mph 1023.8mb 41f 46f
2:30 3 5 mph 1023.9mb 41f 46f
2:24 5 6 mph 1024mb 41f 46f
2:18 5 6 mph 1024.2mb 41f 46f
2:12 5 6 mph 1024.2mb 41f 45f
2:06 5 6 mph 1024.4mb 41f 45f
2:00 6 7 mph 1024.4mb 41f 46f
1:54 5 6 mph 1024.3mb 41f 46f
1:48 6 8 mph 1024.1mb 41f 46f
1:42 3 5 mph 1024mb 41f 46f
1:36 5 7 mph 1024.1mb 41f 46f
1:30 6 7 mph 1024mb 41f 46f
1:24 6 7 mph 1023.8mb 41f 46f
1:18 6 8 mph 1023.8mb 41f 46f
1:12 7 7 mph 1023.5mb 41f 45f
1:06 7 7 mph 1023.4mb 41f 45f
1:00 8 9 mph 1023.3mb 41f 45f
12:54 8 9 mph 1023.5mb 41f 44f
12:48 7 7 mph 1023.7mb 41f 44f
12:42 6 7 mph 1023.6mb 41f 44f
12:36 6 7 mph 1023.3mb 41f 44f
12:30 6 6 mph 1023.1mb 41f 44f
12:24 6 6 mph 1023.4mb 41f 44f
12:18 5 6 mph 1023.5mb 41f 44f
12:12 5 6 mph 1023.6mb 41f 44f
12:06 5 6 mph 1023.7mb 41f 43f
12:00 5 5 mph 1023.5mb 41f 43f
Do 02/21 11:54 3 3 mph 1023.3mb 41f 43f
11:48 1 2 mph 1023.1mb 41f 43f
11:42 1 2 mph 1023.1mb 41f 43f
11:36  -  0 mph 1022.9mb 41f 43f
11:30  -  2 mph 1022.8mb 41f 44f
11:24 2 3 mph 1022.9mb 41f 44f
11:18 2 3 mph 1022.7mb 41f 44f
11:12  -  1 mph 1022.7mb 41f 44f
11:06 1 3 mph 1022.8mb 41f 44f
11:00 5 7 mph 1022.7mb 41f -
10:54 6 6 mph 1022.6mb 41f 45f
10:48 5 7 mph 1022.6mb 41f 43f
10:42 2 3 mph 1022.6mb 41f 42f
10:36 2 2 mph 1022.6mb 41f 42f
10:30  -  1 mph 1022.5mb 41f 41f
10:24  -  1 mph 1022.5mb 41f 41f
10:18 1 2 mph 1022.4mb 41f 41f
10:12 1 2 mph 1022.2mb 41f 41f
10:06 3 5 mph 1022.2mb 41f 42f
10:00 2 2 mph 1022mb 41f 42f
9:54 2 2 mph 1022mb 41f 42f
9:48 2 3 mph 1022.2mb 41f 42f
9:42 2 3 mph 1022.2mb 41f 42f
9:36 1 1 mph 1022.3mb 41f 41f
9:30  -  1 mph 1022.3mb 41f 41f
9:24  -  2 mph 1022.3mb 41f 41f
9:18 2 2 mph 1022.4mb 41f 41f
9:12 2 2 mph 1022.3mb 41f 41f
9:06 2 3 mph 1021.9mb 41f 42f
9:00  -  1 mph 1022mb 41f 42f
8:54 1 1 mph 1021.8mb 41f 42f
8:48 1 2 mph 1021.8mb 41f 41f
8:42 2 2 mph 1021.6mb 41f 42f
8:36  -  1 mph 1021.5mb 41f 41f
8:30 1 2 mph 1021.4mb 41f 41f
8:24 1 1 mph 1021.5mb 41f 41f
8:18 1 2 mph 1021.4mb 41f 41f
8:12 3 3 mph 1021.5mb 41f 42f
8:06 2 3 mph 1021.3mb 41f 42f
8:00 1 2 mph 1021.4mb 41f 42f
7:54 2 2 mph 1021.3mb 41f 42f
7:48 1 1 mph 1021mb 41f 42f
7:42 2 2 mph 1021mb 41f 42f
7:36 2 3 mph 1021mb 41f 42f
7:30 2 3 mph 1020.9mb 41f 42f
7:24 3 5 mph 1021.1mb 41f 43f
7:18 3 5 mph 1021.1mb 41f 43f
7:12 2 3 mph 1021.1mb 42f 42f
7:06 3 3 mph 1021mb 42f 42f
7:00 3 5 mph 1020.6mb 42f 42f
6:54 2 3 mph 1020.4mb 43f 42f
6:48 2 3 mph 1020.2mb 43f 42f
6:42 2 3 mph 1020.2mb 43f 42f
6:36 2 3 mph 1020.1mb 43f 43f
6:30 2 3 mph 1019.9mb 43f 43f
6:24 1 2 mph 1019.7mb 43f 42f
6:18  -  2 mph 1019.8mb 43f 42f
6:12 2 2 mph 1019.7mb 43f 42f
6:06 1 2 mph 1019.6mb 43f 42f
6:00 3 6 mph 1019.3mb 43f 42f
5:54 5 5 mph 1019.2mb 43f 42f
5:48 3 5 mph 1019.1mb 43f 42f
5:42 3 5 mph 1019.1mb 43f -
5:36 3 5 mph 1019mb 43f 42f
5:30 5 6 mph 1018.9mb 43f 43f
5:24 3 5 mph 1018.8mb 43f 43f
5:18 5 6 mph 1018.8mb 43f 43f
5:12 3 5 mph 1018.8mb 43f 43f
5:06 5 5 mph 1018.6mb 43f 44f
4:54 2 3 mph 1018.5mb 42f 46f
4:48 2 3 mph 1018.4mb 42f 46f
4:42 3 5 mph 1018.2mb 42f 46f
4:36 3 5 mph 1018.2mb 42f 46f
4:30 3 3 mph 1018.2mb 42f 45f
4:24 3 6 mph 1018.1mb 42f 44f
4:18 5 6 mph 1018.1mb 42f 45f
4:12 3 5 mph 1018.2mb 42f 46f
4:06 5 6 mph 1018.1mb 42f 46f
4:00 3 6 mph 1017.9mb 42f 46f
3:54 3 5 mph 1017.8mb 42f 45f
3:48 3 6 mph 1017.8mb 42f 45f
3:42 5 6 mph 1017.9mb 42f 44f
3:36 5 7 mph 1018mb 42f 44f
3:30 5 6 mph 1018mb 42f 45f
3:24 6 9 mph 1018mb 42f 46f
3:18 7 9 mph 1018mb 42f 46f
3:12 6 7 mph 1018.1mb - -
3:06 6 7 mph 1018.1mb 42f 46f
3:00 5 7 mph 1018mb 42f 45f
2:54 5 7 mph 1018mb 42f 45f
2:48 6 8 mph 1018mb 42f 45f
2:42 6 8 mph 1017.9mb 42f 45f
2:36 6 7 mph 1017.8mb 42f 45f
2:30 6 7 mph 1017.6mb 41f 45f
2:24 2 3 mph 1017.6mb 41f 47f
2:18 1 2 mph 1017.5mb 41f 46f
2:12 2 3 mph 1017.6mb 41f 46f
2:06 2 3 mph 1017.5mb 41f 46f
2:00 3 5 mph 1017.4mb 41f 46f
1:54 3 5 mph 1017.5mb 41f 46f
1:48 3 3 mph 1017.5mb 41f 48f
1:42 3 5 mph 1017.3mb 41f 47f
1:36 3 5 mph 1017.4mb 41f 47f
1:30 6 7 mph 1017.4mb 41f 47f
1:24 5 6 mph 1017.9mb 41f 46f
1:18 2 3 mph 1017.9mb 41f 47f
1:12  -  3 mph 1018.1mb 41f 46f
1:06  -  2 mph 1018mb 41f 45f
1:00 2 3 mph 1018.3mb 41f 45f
12:54 2 3 mph 1018.2mb 41f 45f
12:48 2 3 mph 1018.2mb 41f 45f
12:42 5 6 mph 1018.4mb 41f 45f
12:36 3 5 mph 1018.2mb 41f 45f
12:30 3 3 mph 1018.2mb 41f 44f
12:24 3 5 mph 1018.2mb 41f 45f
12:18 5 6 mph 1018.2mb 41f 45f
12:12 5 6 mph 1018.1mb 41f 44f
12:06 5 6 mph 1018.5mb 41f 44f
12:00 3 5 mph 1018.4mb 41f 44f
11:54 6 6 mph 1018.3mb 41f 44f
11:48 5 6 mph 1018.4mb 41f 44f
11:42 3 6 mph 1018.3mb 41f 44f
11:36 6 7 mph 1018.3mb 41f 44f
11:30 3 5 mph 1018.3mb 41f 43f
11:24 5 7 mph 1018.3mb 41f 43f
11:18 3 5 mph 1018.4mb 41f 43f
11:12 2 5 mph 1018.4mb 41f 43f
11:06 6 7 mph 1018.2mb 41f 43f
11:00 6 7 mph 1018.4mb 41f -
10:54 6 7 mph 1018.5mb 41f 42f
10:48 6 7 mph 1018.6mb 41f 42f
10:42 6 7 mph 1018.4mb 41f 42f
10:36 5 6 mph 1018.4mb 41f 42f
10:30 6 8 mph 1018.3mb 41f 42f
10:24 7 9 mph 1018.5mb 41f 42f
10:18 5 7 mph 1018.4mb 41f 42f
10:12 8 10 mph 1018.5mb 41f 42f
10:06 8 10 mph 1018.3mb 41f 42f
10:00 6 8 mph 1018.3mb 41f 42f
9:54 6 7 mph 1018mb 41f 41f
9:48 8 10 mph 1017.9mb 41f 41f
9:42 7 10 mph 1018.2mb 41f 41f
9:36 8 10 mph 1018.4mb 41f 41f
9:30 8 13 mph 1018.3mb 41f 41f
9:24 8 10 mph 1018.1mb 41f 41f
9:18 6 9 mph 1018.2mb 41f 41f
9:12 7 11 mph 1018.2mb 41f 41f
9:06 9 13 mph 1018.1mb 41f 41f
9:00 8 10 mph 1018.1mb 41f 41f
8:54 7 8 mph 1017.9mb 41f 41f
8:48 9 14 mph 1017.6mb 41f 41f
8:42 9 14 mph 1017.5mb 41f 41f
8:36 8 11 mph 1017.6mb 41f 41f
8:30 10 14 mph 1017.5mb 41f 41f
8:24 6 8 mph 1017.5mb 41f 41f
8:18 9 11 mph 1017.5mb 41f 41f
8:12 7 9 mph 1017.2mb 41f 41f
8:06 8 14 mph 1017.2mb 41f 41f
8:00 9 13 mph 1017.2mb 41f 41f
7:54 7 10 mph 1017.5mb 41f 41f
7:48 8 11 mph 1017mb 41f 40f
7:42 6 8 mph 1016.8mb 41f 41f
7:36 8 10 mph 1016.7mb 41f 40f
7:30 7 11 mph 1016.5mb 41f 40f
7:24 7 8 mph 1016.6mb 41f 41f
7:18 6 9 mph 1016.7mb 41f 41f
7:12 6 9 mph 1016.7mb 41f 41f
7:06 6 9 mph 1016.7mb 41f 41f
7:00 8 10 mph 1016.6mb 41f 41f
6:54 7 9 mph 1016.6mb 41f 41f
6:48 6 10 mph 1016.7mb 41f 41f
6:42 6 9 mph 1016.5mb 41f 41f
6:36 6 7 mph 1016.4mb 41f 41f
6:30 6 8 mph 1016.3mb 41f 41f
6:24 6 8 mph 1016.2mb 41f 41f
6:18 8 13 mph 1016.1mb 41f 41f
6:12 9 14 mph 1016.4mb 41f 42f
6:06 11 16 mph 1016.4mb 41f 42f
6:00 7 9 mph 1016.1mb 41f 42f
5:54 6 8 mph 1016.1mb 41f 42f
5:48 9 13 mph 1016.1mb 41f 42f
5:42 10 15 mph 1015.9mb 41f 42f
5:36 10 14 mph 1015.8mb 41f 42f
5:30 10 14 mph 1015.9mb 41f 42f
5:24 11 15 mph 1015.8mb 41f 42f
5:18 9 11 mph 1015.9mb 41f -
5:12 10 13 mph 1015.8mb 41f 43f
5:06 11 17 mph 1015.7mb 41f 43f
5:00 11 15 mph 1015.6mb 41f 43f
4:54 10 14 mph 1015.4mb 41f 43f
4:48 13 17 mph 1015.3mb 41f -
4:42 13 16 mph 1015.4mb 41f 43f
4:36 14 21 mph 1015.5mb 41f 43f
4:30 13 17 mph 1015.5mb 41f 43f
4:24 11 15 mph 1015.5mb 41f 43f
4:18 13 18 mph 1015.5mb 41f 43f
4:12 11 15 mph 1015.5mb 41f 43f
4:06 13 15 mph 1015.4mb 41f 43f
4:00 13 16 mph 1015mb 41f 43f
3:54 13 17 mph 1014.8mb 41f 43f
3:48 14 20 mph 1015mb 41f 43f
3:42 16 21 mph 1015mb 41f 43f
3:36 15 22 mph 1014.7mb 41f 44f
3:30 11 17 mph 1014.6mb - -
3:24 16 21 mph 1014.5mb 41f 44f
3:18 14 18 mph 1014.5mb 41f 45f
3:12 18 25 mph 1014.5mb 41f 45f
3:06 18 24 mph 1014.5mb 41f 45f
3:00 20 26 mph 1014.6mb 41f 45f
2:54 14 18 mph 1014.7mb 41f 46f
2:48 14 18 mph 1014.8mb 41f 47f
2:42 14 18 mph 1014.7mb 41f 47f
2:36 14 20 mph 1014.8mb 41f 47f
2:30 16 23 mph 1014.9mb 41f 47f
2:24 14 20 mph 1015mb 41f 48f
2:18 18 24 mph 1015.1mb 41f 49f
2:12 15 17 mph 1015.1mb 41f 49f
2:06 16 21 mph 1015.1mb 41f 49f
2:00 14 18 mph 1015.2mb 41f 49f
1:54 10 14 mph 1014.7mb 41f 50f
1:48 15 20 mph 1015.8mb 41f 50f
1:42 9 15 mph 1015.4mb 41f 47f
1:36 7 10 mph 1015.1mb 41f 44f
1:30 10 13 mph 1014.2mb 41f 44f
1:24 7 10 mph 1014mb 41f 45f
1:18 8 9 mph 1014.4mb 41f 46f
1:12 9 10 mph 1014.6mb 41f 47f
1:06 10 13 mph 1015mb 41f 46f
1:00 9 11 mph 1015.2mb 41f 50f
12:54 9 11 mph 1015.6mb 41f 49f
12:48 7 9 mph 1015.5mb 41f 47f
12:42 7 8 mph 1015.6mb 41f 47f
12:36 8 9 mph 1015.8mb 41f 47f
12:30 10 13 mph 1015.8mb 40f 49f
12:24 13 16 mph 1015.9mb 40f 50f
12:18 13 16 mph 1015.8mb 40f 49f
12:12 13 15 mph 1015.7mb 40f 48f
12:06 10 14 mph 1016mb 40f 48f
12:00 8 10 mph 1015.8mb 40f -
Mi 02/20 11:54 8 9 mph 1015.8mb 40f 44f
11:48 8 9 mph 1015.9mb 40f 44f
11:42 7 8 mph 1016.1mb 40f 45f
11:36 8 10 mph 1015.9mb 40f 46f
11:30 8 10 mph 1015.7mb 40f 46f
11:24 9 11 mph 1015.9mb 40f 46f
11:18 11 14 mph 1016.1mb 40f 47f
11:12 11 17 mph 1015.9mb 40f 47f
11:06 14 20 mph 1016mb 40f 47f
11:00 11 16 mph 1016.5mb 40f 47f
10:54 8 11 mph 1016.7mb 40f 48f
10:48 10 15 mph 1016.5mb 40f 48f
10:42 14 18 mph 1016.5mb 40f 49f
10:36 11 16 mph 1016.9mb 40f 48f
10:30 9 14 mph 1017.3mb 40f 48f
10:24 11 15 mph 1017.7mb 40f 49f
10:18 15 21 mph 1017.8mb 40f 50f
10:12 11 16 mph 1018.1mb 40f 49f
10:06 11 16 mph 1018.4mb 40f 50f
10:00 13 18 mph 1018.5mb 40f 50f
9:54 14 20 mph 1018.4mb 40f 51f
9:48 11 16 mph 1018.5mb 40f 48f
9:42 9 13 mph 1019mb 40f 48f
9:36 5 7 mph 1019.6mb 40f 46f
9:30 2 3 mph 1020.3mb 40f 47f
9:24 5 6 mph 1020.6mb 40f 47f
9:18 1 3 mph 1021mb 40f 46f
9:12 1 3 mph 1021.3mb 40f 45f
9:06 1 2 mph 1021.3mb 40f 45f
9:00  -  2 mph 1021.1mb 40f 45f
8:54 6 8 mph 1021.4mb 40f 44f
8:48 5 8 mph 1021.1mb 40f 46f
8:42 9 14 mph 1020.5mb 40f 45f
8:36 16 22 mph 1020.7mb 40f 45f
8:30 20 26 mph 1020.9mb 40f 46f
8:24 11 15 mph 1021mb 40f 44f
8:18 13 20 mph 1020.9mb 40f 44f
8:12 13 20 mph 1021.1mb 40f 44f
8:06 11 18 mph 1021.7mb 40f 44f
8:00 11 16 mph 1021.8mb 40f 43f
7:54 17 26 mph 1021.8mb 40f 44f
7:48 13 17 mph 1022.1mb 40f 43f
7:42 11 18 mph 1022.4mb 40f 43f
7:36 9 14 mph 1022.7mb 40f 42f
7:30 7 10 mph 1023.2mb 40f 42f
7:24 7 11 mph 1023.3mb 40f 42f
7:18 8 11 mph 1023.3mb 40f 42f
7:12 8 14 mph 1023.5mb 40f 42f
7:06 13 21 mph 1023.4mb 40f 42f
7:00 9 15 mph 1023.4mb 40f 42f
6:54 13 20 mph 1023.3mb 40f 42f
6:48 13 20 mph 1023.4mb 40f 42f
6:42 14 22 mph 1023.4mb 40f 42f
6:36 11 18 mph 1023.6mb 40f 42f
6:30 13 22 mph 1023.8mb 40f 42f
6:24 8 14 mph 1024.4mb 40f 42f
6:18 7 10 mph 1024.8mb 40f 42f
6:12 9 15 mph 1024.7mb 40f 42f
6:06 11 22 mph 1023.8mb 40f 42f
6:00 11 21 mph 1024mb 40f 42f
5:54 14 22 mph 1024.3mb 40f 42f
5:48 10 16 mph 1024.8mb 40f 41f
5:42 13 18 mph 1025.1mb 40f 41f
5:36 14 21 mph 1025.4mb 40f 41f
5:30 11 18 mph 1025.6mb 40f 41f
5:24 10 16 mph 1025.7mb 40f 41f
5:18 11 16 mph 1025.8mb 40f 41f
5:12 10 16 mph 1025.9mb 40f 41f
5:06 10 15 mph 1026mb 40f 41f
5:00 10 16 mph 1025.8mb 40f 41f
4:54 13 18 mph 1025.6mb 40f 40f
4:48 15 23 mph 1025.3mb 40f 40f
4:42 13 22 mph 1025.4mb 40f 40f
4:36 16 24 mph 1025.5mb 40f 40f
4:30 15 22 mph 1025.7mb 40f 40f
4:24 20 28 mph 1026mb 40f 40f
4:18 17 25 mph 1026.2mb 40f 39f
4:12 13 21 mph 1026.5mb 40f 39f
4:06 13 18 mph 1026.9mb 40f 39f
4:00 14 18 mph 1027.4mb 40f 39f
3:54 11 17 mph 1027.6mb 40f 39f
3:48 13 20 mph 1027.8mb 40f 39f
3:42 13 20 mph 1027.6mb 40f 39f
3:36 15 20 mph 1027.6mb 40f 39f
3:30 14 21 mph 1027.6mb 40f 39f
3:24 16 23 mph 1027.7mb 40f 39f
3:18 14 21 mph 1027.9mb 40f 39f
3:12 15 22 mph 1028.3mb 40f 38f
3:06 9 14 mph 1028.6mb 40f 39f
3:00 14 21 mph 1028.6mb 40f -
2:54 14 20 mph 1028.4mb 40f 38f
2:48 14 21 mph 1028.4mb 40f 38f
2:42 14 20 mph 1028.3mb 40f 38f
2:36 16 29 mph 1028.1mb 40f 38f
2:30 17 22 mph 1028.4mb 40f 38f
2:24 16 23 mph 1028.4mb 40f 38f
2:18 14 21 mph 1028.8mb 40f 38f
2:12 13 18 mph 1029mb 40f 38f
2:06 11 17 mph 1029.2mb 40f 37f
2:00 10 15 mph 1029.4mb 40f 37f
1:54 13 20 mph 1029.6mb 40f 37f
1:48 14 21 mph 1029.5mb 40f 37f
1:42 15 22 mph 1029.8mb 40f 37f
1:36 13 18 mph 1030mb 40f 37f
1:30 14 21 mph 1030.5mb 40f 37f
1:24 13 21 mph 1031.1mb 40f 37f
1:18 11 17 mph 1031.2mb 40f 37f
1:12 11 18 mph 1031.3mb 40f 37f
1:06 13 18 mph 1031.6mb 40f 37f
1:00 11 20 mph 1031.9mb 40f 36f
12:54 11 17 mph 1031.9mb 40f 36f
12:48 10 16 mph 1032.1mb 40f 36f
12:42 10 16 mph 1032.4mb 40f 36f
12:36 9 13 mph 1032.9mb 40f 36f
12:30 10 15 mph 1032.9mb 40f 36f
12:24 10 16 mph 1032.5mb 40f 36f
12:18 10 16 mph 1032.4mb 40f 36f
12:12 11 17 mph 1032.6mb 40f 36f
12:06 8 15 mph 1032.8mb 40f 36f
12:00 11 16 mph 1032.9mb 40f 36f
11:54 10 16 mph 1033.2mb 40f 36f
11:48 9 14 mph 1032.9mb 40f 35f
11:42 10 14 mph 1032.8mb 40f 35f
11:36 10 15 mph 1033.1mb 40f 35f
11:30 8 13 mph 1033.2mb 40f 35f
11:24 9 13 mph 1033.1mb 40f 35f
11:18 9 13 mph 1033.3mb 40f 35f
11:12 7 10 mph 1034mb 40f 34f
11:06 8 11 mph 1034.2mb 40f 35f
11:00 9 11 mph 1033.8mb 40f 35f
10:54 7 10 mph 1033.8mb 40f 35f
10:48 8 11 mph 1034.1mb 40f 34f
10:42 8 10 mph 1033.9mb 40f 34f
10:36 7 10 mph 1034.1mb 40f 34f
10:30 8 10 mph 1034.3mb 40f 34f
10:24 7 10 mph 1034.1mb 40f 34f
10:18 8 11 mph 1034.1mb 40f 34f
10:12 7 10 mph 1034.1mb 40f 34f
10:06 9 14 mph 1034.3mb 40f 34f
10:00 9 16 mph 1034.1mb 40f 34f
9:54 9 14 mph 1034.1mb 40f 34f
9:48 9 13 mph 1034.4mb 40f 34f
9:42 7 13 mph 1034.4mb 40f 34f
9:36 9 14 mph 1034.3mb 40f 34f
9:30 9 14 mph 1034.5mb 40f 34f
9:24 9 13 mph 1034.9mb 40f 34f
9:18 7 10 mph 1035.2mb 40f 35f
9:12 6 8 mph 1035.5mb 40f 35f
9:06 6 8 mph 1035mb 40f 34f
9:00 8 14 mph 1034.8mb 40f 34f
8:54 8 13 mph 1034.8mb 40f 34f
8:48 7 9 mph 1035.4mb 40f 34f
8:42 8 11 mph 1035.4mb 40f 34f
8:36 6 8 mph 1035.3mb 40f 34f
8:30 7 9 mph 1035mb 40f 34f
8:24 6 9 mph 1035.6mb 40f 33f
8:18 9 11 mph 1035mb 40f 33f
8:12 7 9 mph 1035.3mb 40f 33f
8:06 6 7 mph 1035.5mb 40f 33f
8:00 2 5 mph 1036mb 40f 34f
7:54 3 6 mph 1035.7mb 40f 34f
7:48 5 6 mph 1036mb 40f 34f
7:42 5 6 mph 1036.5mb 40f 34f
7:36 5 7 mph 1036.2mb 40f 34f
7:30 7 9 mph 1036.3mb 40f 35f
7:24 5 9 mph 1036.3mb 40f 35f
7:18 5 8 mph 1036.1mb 40f 36f
7:12 7 9 mph 1035.6mb 40f 36f
7:06 6 9 mph 1035.7mb 40f 36f
7:00 7 9 mph 1035.5mb 40f 36f
6:54 8 13 mph 1035.5mb 40f 37f
6:48 6 9 mph 1035.4mb 40f 37f
6:42 6 8 mph 1035.6mb 40f 37f
6:36 7 9 mph 1035.7mb 40f 37f
6:30 5 8 mph 1035.5mb 40f 37f
6:24 6 9 mph 1035.2mb 40f 37f
6:18 6 8 mph 1035.2mb 40f 37f
6:12 5 7 mph 1035.3mb 40f 37f
6:06 6 9 mph 1035.2mb 40f 37f
6:00 6 9 mph 1035.6mb 41f 37f
5:54 6 7 mph 1035.5mb 41f 37f
5:48 6 9 mph 1035.5mb - -
5:42 6 10 mph 1035.1mb 41f 37f
5:36 8 10 mph 1035.3mb 41f 37f
5:30 6 10 mph 1035.2mb 41f 37f
5:24 6 7 mph 1035.3mb 41f 37f
5:18 6 9 mph 1035.1mb - -
5:12 8 11 mph 1035mb 41f 37f
5:06 6 8 mph 1035mb 41f 37f
5:00 8 11 mph 1034.5mb 41f 37f
4:54 7 10 mph 1034.7mb 41f 37f
4:48 6 7 mph - - -
4:42 5 6 mph 1035.6mb 41f 37f
4:36 6 8 mph 1035.8mb 41f 37f
4:30 6 9 mph 1035.9mb 41f 37f
4:24 6 9 mph 1036mb 41f 36f
4:18 5 6 mph 1036.1mb 41f 36f
4:12 5 7 mph 1035.9mb 41f 36f
4:06 5 8 mph 1035.8mb 41f 36f
4:00 6 7 mph 1035.8mb 41f 36f
3:54 6 9 mph 1035.8mb 41f 36f
3:48 3 6 mph 1035.9mb 41f 36f
3:42 5 7 mph 1035.8mb 41f 36f
3:36 3 6 mph 1036mb 41f 36f
3:30 3 6 mph 1036.1mb 41f 36f
3:24 2 5 mph 1036.1mb 41f 36f
3:18 3 5 mph 1036.1mb 41f 36f
3:12 3 6 mph 1036.3mb 41f 36f
3:06 3 6 mph 1036mb 41f 35f
3:00 3 6 mph 1036.1mb 41f 35f
2:54 5 9 mph 1036mb 41f 35f
2:48 2 5 mph 1036mb 41f 35f
2:42 5 7 mph 1036.2mb 41f 35f
2:36 6 8 mph 1036.3mb 41f 35f
2:30 6 9 mph 1036.6mb 41f 35f
2:24 6 8 mph 1036.4mb 41f 35f
2:18 5 6 mph 1036.7mb 41f 35f
2:12 6 7 mph 1036.9mb 41f 35f
2:06 6 7 mph 1037.2mb 41f 35f
2:00 5 6 mph 1037mb 41f 35f
1:54 5 6 mph 1037mb 41f 35f
1:48 5 6 mph 1036.8mb 41f 35f
1:42 5 6 mph 1036.6mb 41f 35f
1:36 5 6 mph 1036.7mb 41f 35f
1:30 5 6 mph 1037mb 41f 35f
1:24 3 5 mph 1037.2mb 41f 35f
1:18 3 5 mph 1037.4mb - -
1:12 5 6 mph 1037.1mb 41f 35f
1:06 3 3 mph 1037.1mb 41f 35f
1:00 3 5 mph 1037mb 41f 35f
12:54 2 3 mph 1036.9mb 41f 35f
12:48 3 5 mph 1037.1mb 41f 35f
12:42 3 3 mph 1037.2mb 41f 35f
12:36 2 3 mph 1037.2mb 41f 35f
12:30 3 5 mph 1037.3mb 41f 35f
12:24 3 3 mph 1037.4mb 41f 35f
12:18 3 5 mph 1037.6mb 41f 35f
12:12 5 5 mph 1037.6mb 41f 35f
12:06 3 5 mph 1037.6mb 41f 35f
12:00 3 3 mph 1037.3mb 41f -
Di 02/19 11:54 3 3 mph 1037.4mb 41f 35f
11:48 3 5 mph 1037.4mb 41f 35f
11:42 3 5 mph 1037.4mb 41f 35f
11:36 3 5 mph 1037.5mb 41f 36f
11:30 5 5 mph 1037.5mb 41f 36f
11:24 3 6 mph 1037.5mb 41f 36f
11:18 6 7 mph 1037.3mb 41f 36f
11:12 6 7 mph 1037.3mb 41f 36f
11:06 5 6 mph 1037.2mb 41f 36f
11:00 6 7 mph 1037.1mb 41f 36f
10:54 6 7 mph 1037mb 41f 36f
10:48 5 7 mph 1037.1mb 41f 36f
10:42 7 8 mph 1037mb 41f 36f
10:36 7 8 mph 1037.1mb 41f 36f
10:30 7 8 mph 1036.8mb 41f 36f
10:24 7 8 mph 1036.6mb 41f 36f
10:18 6 7 mph 1036.6mb 41f 36f
10:12 5 6 mph 1036.5mb 41f 36f
10:06 3 6 mph 1036.7mb 41f 36f
10:00 5 6 mph 1037.1mb 41f 36f
9:54 5 6 mph 1037.2mb 41f 36f
9:48 5 7 mph 1037.2mb 41f 36f
9:42 6 7 mph 1037.3mb 41f 36f
9:36 6 7 mph 1037.2mb 41f 36f
9:30 5 6 mph 1037.2mb 41f 36f
9:24 5 6 mph 1037mb 41f 37f
9:18 5 7 mph 1037.1mb 41f 37f
9:12 6 7 mph 1037.1mb 41f 37f
9:06 6 7 mph 1036.9mb 41f 37f
9:00 5 6 mph 1037mb 41f 37f
8:54 5 6 mph 1037.1mb 41f 37f
8:48 5 6 mph 1037.1mb 41f 37f
8:42 5 6 mph 1037.3mb 41f 37f
8:36 5 6 mph 1037.3mb 41f 37f
8:30 5 6 mph 1037.3mb 41f 37f
8:24 6 7 mph 1037.3mb 41f 37f
8:18 6 7 mph 1037.1mb 41f 37f
8:12 6 8 mph 1036.9mb 41f 37f
8:06 6 7 mph 1037.2mb 41f 37f
8:00 6 7 mph 1037.5mb 41f 37f
7:54 6 7 mph 1037.2mb 41f 37f
7:48 6 7 mph 1037.2mb 41f 37f
7:42 6 7 mph 1037.1mb 41f 37f
7:36 5 6 mph 1037.1mb 41f 37f
7:30 6 7 mph 1037.2mb - -
7:24 6 6 mph 1037.3mb 41f 37f
7:18 6 7 mph 1037.3mb 41f 37f
7:12 6 7 mph 1037.2mb 41f 37f
7:06 5 6 mph 1037.2mb 41f 37f
7:00 6 7 mph 1036.8mb 41f 38f
6:54 6 7 mph 1036.5mb 41f 37f
6:48 7 8 mph 1036.7mb 41f 38f
6:42 7 8 mph 1036.8mb 41f 38f
6:36 7 8 mph 1036.8mb 41f 38f
6:30 6 8 mph 1036.8mb 41f 38f
6:24 8 9 mph 1036.7mb 41f 38f
6:18 7 9 mph 1036.6mb 41f 38f
6:12 7 8 mph 1036.5mb 42f 38f
6:06 8 11 mph 1036.4mb 42f 38f
6:00 6 8 mph 1036.4mb 42f 38f
5:54 8 10 mph 1036.4mb 42f 38f
5:48 7 9 mph 1036.5mb 42f 38f
5:42 8 9 mph 1036.4mb 42f 38f
5:36 6 7 mph 1036.5mb 43f 38f